Time;durP1;ratioP1;P1;durP2;ratioP2;P2;SDS_P1;SDS_P2;PMS_P1;PMS_P2;Temp;Humidity;BMP_temperature;BMP_pressure;BME280_temperature;BME280_humidity;BME280_pressure;Samples;Min_cycle;Max_cycle;Signal;HPM_P1;HPM_P2
2022/01/04 00:01:16;;;;;;;;;4.00;4.00;;;;;21.17;51.07;99466.63;6346302;22;45412;-77
2022/01/04 00:03:41;;;;;;;;;3.25;2.75;;;;;21.19;50.71;99464.75;6373878;22;45252;-77
2022/01/04 00:06:09;;;;;;;;;4.25;4.25;;;;;21.13;50.87;99449.19;6371856;22;45207;-77
2022/01/04 00:08:35;;;;;;;;;4.00;3.00;;;;;21.09;50.66;99442.31;6345720;22;45218;-77
2022/01/04 00:13:54;;;;;;;;;2.25;2.25;;;;;21.14;51.25;99433.16;6306204;22;45444;-78
2022/01/04 00:16:19;;;;;;;;;2.00;2.00;;;;;21.16;50.91;99430.44;6345829;22;45163;-77
2022/01/04 00:18:46;;;;;;;;;4.75;4.00;;;;;21.11;51.01;99422.72;6319466;22;45697;-78
2022/01/04 00:21:11;;;;;;;;;3.00;3.00;;;;;21.20;50.98;99431.09;6319245;22;45645;-77
2022/01/04 00:23:37;;;;;;;;;3.25;3.25;;;;;21.18;51.05;99415.28;6345337;22;47891;-78
2022/01/04 00:26:03;;;;;;;;;2.00;2.00;;;;;21.16;50.96;99422.47;6346210;22;45362;-78
2022/01/04 00:28:28;;;;;;;;;2.75;2.75;;;;;21.16;50.65;99410.06;6319172;22;45348;-77
2022/01/04 00:30:54;;;;;;;;;4.00;4.00;;;;;21.15;50.71;99394.22;6320063;22;45298;-78
2022/01/04 00:33:19;;;;;;;;;3.00;3.00;;;;;21.15;50.98;99394.22;6293096;22;45897;-77
2022/01/04 00:35:45;;;;;;;;;3.00;3.00;;;;;21.11;50.97;99369.69;6374066;22;45335;-77
2022/01/04 00:38:11;;;;;;;;;3.75;2.00;;;;;21.10;50.75;99370.59;6345859;22;45124;-78
2022/01/04 00:40:36;;;;;;;;;2.25;2.25;;;;;21.11;51.08;99363.47;6319901;22;45500;-78
2022/01/04 00:43:02;;;;;;;;;4.00;4.00;;;;;21.11;50.96;99355.53;6319725;22;46204;-78
2022/01/04 00:45:31;;;;;;;;;2.25;2.25;;;;;21.10;51.10;99353.81;6319960;22;45585;-78
2022/01/04 00:50:22;;;;;;;;;3.50;3.00;;;;;21.09;51.22;99342.34;6373622;22;45373;-78
2022/01/04 00:52:48;;;;;;;;;2.00;2.00;;;;;21.05;51.34;99335.53;6318624;22;46067;-78
2022/01/04 00:55:14;;;;;;;;;3.00;3.00;;;;;21.06;50.83;99318.66;6345734;22;45233;-78
2022/01/04 00:57:40;;;;;;;;;6.75;3.00;;;;;21.07;51.04;99324.81;6345253;22;45676;-78
2022/01/04 01:00:06;;;;;;;;;2.75;2.75;;;;;21.07;51.36;99320.38;6346158;22;45448;-78
2022/01/04 01:02:31;;;;;;;;;3.50;2.75;;;;;21.10;51.10;99314.03;6344923;22;47245;-78
2022/01/04 01:04:56;;;;;;;;;4.00;4.00;;;;;21.09;51.45;99307.00;6374378;22;45153;-78
2022/01/04 01:07:22;;;;;;;;;3.25;3.00;;;;;21.11;50.99;99299.81;6375780;22;45492;-78
2022/01/04 01:10:03;;;;;;;;;6.00;3.00;;;;;21.09;51.89;99283.13;6345345;22;45342;-78
2022/01/04 01:12:29;;;;;;;;;1.00;0.75;;;;;21.10;51.30;99279.53;6373972;22;46019;-78
2022/01/04 01:14:54;;;;;;;;;5.50;3.25;;;;;21.08;50.80;99271.66;6345006;22;49114;-79
2022/01/04 01:17:19;;;;;;;;;4.50;4.25;;;;;21.10;51.22;99271.56;6319293;22;45344;-76
2022/01/04 01:19:45;;;;;;;;;3.00;2.00;;;;;21.08;51.24;99262.84;6373797;22;45333;-76
2022/01/04 01:22:10;;;;;;;;;4.00;2.75;;;;;21.09;51.43;99264.56;6345097;22;53916;-76
2022/01/04 01:24:35;;;;;;;;;2.25;2.25;;;;;21.13;51.30;99260.81;6373173;22;56184;-77
2022/01/04 01:27:01;;;;;;;;;2.00;2.00;;;;;21.16;51.19;99263.28;6345177;22;47045;-76
2022/01/04 01:29:28;;;;;;;;;2.00;2.00;;;;;21.18;51.32;99269.34;6345738;22;45869;-76
2022/01/04 01:31:53;;;;;;;;;3.25;3.00;;;;;21.16;51.45;99250.00;6373382;22;45533;-76
2022/01/04 01:34:19;;;;;;;;;3.00;3.00;;;;;21.17;50.92;99239.31;6344945;22;45190;-76
2022/01/04 01:36:44;;;;;;;;;3.75;3.50;;;;;21.18;50.76;99243.66;6373239;22;45269;-76
2022/01/04 01:39:09;;;;;;;;;3.00;3.00;;;;;21.21;51.64;99237.34;6373007;22;54863;-76
2022/01/04 01:41:35;;;;;;;;;4.00;2.75;;;;;21.23;51.19;99237.25;6373444;22;45193;-76
2022/01/04 01:44:00;;;;;;;;;4.50;4.50;;;;;21.24;50.95;99225.69;6345332;22;45466;-75
2022/01/04 01:46:26;;;;;;;;;2.00;2.00;;;;;21.27;51.20;99222.88;6373662;22;45233;-76
2022/01/04 01:48:51;;;;;;;;;2.25;2.00;;;;;21.24;51.52;99204.47;6345095;22;45351;-76
2022/01/04 01:51:17;;;;;;;;;3.50;3.00;;;;;21.27;51.30;99210.47;6318468;22;47493;-76
2022/01/04 01:53:43;;;;;;;;;2.75;2.75;;;;;21.29;50.96;99197.97;6345443;22;45269;-76
2022/01/04 01:56:09;;;;;;;;;3.00;2.75;;;;;21.28;51.33;99190.94;6344985;22;45307;-75
2022/01/04 01:58:34;;;;;;;;;3.00;3.00;;;;;21.30;51.28;99197.03;6372933;22;53790;-76
2022/01/04 02:01:00;;;;;;;;;3.50;2.00;;;;;21.27;50.94;99185.72;6345126;22;45287;-76
2022/01/04 02:03:25;;;;;;;;;3.00;3.00;;;;;21.28;51.00;99190.94;6345068;22;45268;-75
2022/01/04 02:05:51;;;;;;;;;3.00;3.00;;;;;21.26;50.63;99187.50;6372577;22;51281;-76
2022/01/04 02:08:19;;;;;;;;;4.75;3.00;;;;;21.21;51.02;99181.63;6345213;22;45175;-76
2022/01/04 02:10:45;;;;;;;;;3.75;2.00;;;;;21.22;50.92;99172.72;6318252;22;52208;-76
2022/01/04 02:13:12;;;;;;;;;2.00;2.00;;;;;21.25;51.19;99167.22;6345739;22;45435;-76
2022/01/04 02:15:38;;;;;;;;;4.00;3.50;;;;;21.24;51.18;99167.31;6319895;22;45374;-77
2022/01/04 02:18:03;;;;;;;;;4.00;2.50;;;;;21.27;51.25;99173.31;6347246;22;45313;-76
2022/01/04 02:20:29;;;;;;;;;5.75;3.00;;;;;21.27;51.29;99162.69;6326959;22;45383;-76
2022/01/04 02:22:56;;;;;;;;;3.25;3.00;;;;;21.23;50.86;99157.66;6377045;22;44826;-76
2022/01/04 02:25:24;;;;;;;;;2.75;2.75;;;;;21.26;51.26;99160.09;6350566;22;45273;-76
2022/01/04 02:27:49;;;;;;;;;3.25;3.25;;;;;21.25;51.09;99148.63;6350675;22;45649;-76
2022/01/04 02:30:17;;;;;;;;;5.00;2.25;;;;;21.28;51.43;99153.78;6321937;22;46177;-76
2022/01/04 02:32:43;;;;;;;;;2.50;2.50;;;;;21.28;51.11;99140.53;6319651;22;45376;-76
2022/01/04 02:35:08;;;;;;;;;3.25;3.25;;;;;21.28;51.08;99132.56;6373584;22;45219;-76
2022/01/04 02:37:34;;;;;;;;;4.00;3.00;;;;;21.23;50.98;99109.88;6317992;22;48984;-76
2022/01/04 02:39:59;;;;;;;;;3.00;3.00;;;;;21.23;51.05;99110.75;6344184;22;47693;-76
2022/01/04 02:42:25;;;;;;;;;4.00;3.00;;;;;21.25;50.73;99108.00;6344765;22;45328;-76
2022/01/04 02:44:50;;;;;;;;;7.00;4.25;;;;;21.28;51.17;99108.69;6340462;22;45356;-76
2022/01/04 02:47:16;;;;;;;;;5.00;5.00;;;;;21.27;50.86;99099.00;6317213;22;45689;-76
2022/01/04 02:49:41;;;;;;;;;4.50;4.50;;;;;21.26;50.83;99099.06;6319302;22;48009;-76
2022/01/04 02:52:07;;;;;;;;;7.00;5.50;;;;;21.28;51.15;99094.56;6345628;22;45280;-76
2022/01/04 02:54:32;;;;;;;;;6.25;4.00;;;;;21.24;50.75;99085.91;6318769;22;45167;-75
2022/01/04 02:56:58;;;;;;;;;7.00;5.50;;;;;21.22;50.84;99076.34;6374441;22;45131;-76
2022/01/04 02:59:24;;;;;;;;;5.00;4.00;;;;;21.22;50.90;99071.88;6374101;22;45228;-76
2022/01/04 03:01:50;;;;;;;;;4.00;4.00;;;;;21.22;51.26;99069.25;6346473;22;45191;-76
2022/01/04 03:04:15;;;;;;;;;3.75;3.75;;;;;21.21;50.61;99067.53;6346414;22;45675;-76
2022/01/04 03:06:40;;;;;;;;;5.25;5.25;;;;;21.17;50.82;99055.38;6319247;22;45990;-75
2022/01/04 03:09:06;;;;;;;;;4.00;4.00;;;;;21.20;50.92;99067.59;6345471;22;46286;-77
2022/01/04 03:11:32;;;;;;;;;4.00;4.00;;;;;21.20;51.07;99054.34;6345892;22;45371;-77
2022/01/04 03:13:58;;;;;;;;;6.50;5.00;;;;;21.17;51.01;99052.72;6345896;22;45370;-77
2022/01/04 03:16:23;;;;;;;;;7.75;4.00;;;;;21.18;50.75;99049.13;6374740;22;45273;-77
2022/01/04 03:19:06;;;;;;;;;5.25;4.25;;;;;21.18;50.45;99051.78;6345207;22;53959;-77
2022/01/04 03:21:32;;;;;;;;;6.25;4.00;;;;;21.13;50.71;99035.31;6373831;22;45399;-77
2022/01/04 03:23:58;;;;;;;;;3.25;2.75;;;;;21.15;50.90;99030.75;6372062;22;45292;-77
2022/01/04 03:26:24;;;;;;;;;3.00;3.00;;;;;21.11;51.07;99039.84;6373858;22;45352;-77
2022/01/04 03:28:49;;;;;;;;;4.00;4.00;;;;;21.08;50.71;99030.28;6373913;22;45232;-77
2022/01/04 03:31:14;;;;;;;;;3.00;3.00;;;;;21.10;50.64;99030.16;6345963;22;45357;-77
2022/01/04 03:33:40;;;;;;;;;3.75;3.75;;;;;21.06;50.66;99028.66;6374364;22;45432;-76
2022/01/04 03:36:05;;;;;;;;;5.75;3.75;;;;;21.04;50.74;99012.00;6373678;22;45247;-77
2022/01/04 03:38:31;;;;;;;;;3.50;3.50;;;;;21.02;50.59;99003.25;6374014;22;46290;-77
2022/01/04 03:40:56;;;;;;;;;4.00;4.00;;;;;21.04;50.52;99007.56;6345264;22;48632;-77
2022/01/04 03:43:22;;;;;;;;;6.25;5.00;;;;;21.07;50.69;99010.00;6345502;22;51687;-76
2022/01/04 03:45:48;;;;;;;;;4.00;4.00;;;;;21.03;50.65;99002.34;6373916;22;45222;-76
2022/01/04 03:48:13;;;;;;;;;3.50;3.50;;;;;21.04;50.44;99007.56;6345900;22;45400;-77
2022/01/04 03:50:40;;;;;;;;;3.75;3.00;;;;;21.04;50.57;99001.41;6345527;22;45172;-77
2022/01/04 03:53:05;;;;;;;;;3.00;2.00;;;;;21.05;50.43;99006.59;6346755;22;45226;-77
2022/01/04 03:55:30;;;;;;;;;3.00;3.00;;;;;21.10;49.94;99008.94;6373650;22;45336;-77
2022/01/04 03:57:56;;;;;;;;;2.00;2.00;;;;;21.04;50.01;99004.03;6373451;22;56483;-77
2022/01/04 04:00:21;;;;;;;;;4.25;4.25;;;;;21.04;50.31;99004.03;6345220;22;52015;-77
2022/01/04 04:02:46;;;;;;;;;3.50;3.50;;;;;21.06;50.06;99010.09;6346191;22;45379;-77
2022/01/04 04:05:13;;;;;;;;;5.00;4.00;;;;;21.05;50.39;99006.59;6345348;22;45372;-77
2022/01/04 04:07:38;;;;;;;;;3.75;3.00;;;;;21.08;50.38;99008.19;6346071;22;45266;-76
2022/01/04 04:10:04;;;;;;;;;4.00;2.75;;;;;21.10;50.71;99016.91;6373629;22;45298;-77
2022/01/04 04:12:29;;;;;;;;;2.75;2.75;;;;;21.06;49.84;99010.94;6374247;22;45375;-77
2022/01/04 04:14:57;;;;;;;;;3.50;2.50;;;;;21.05;50.20;99013.69;6345406;22;45654;-77
2022/01/04 04:17:22;;;;;;;;;3.00;3.00;;;;;21.03;49.88;99012.94;6346149;22;46218;-77
2022/01/04 04:19:48;;;;;;;;;2.00;2.00;;;;;21.00;50.40;99013.13;6373591;22;46011;-77
2022/01/04 04:22:13;;;;;;;;;2.00;2.00;;;;;20.98;49.99;99017.66;6344491;22;49635;-77
2022/01/04 04:24:38;;;;;;;;;2.25;2.25;;;;;21.01;50.33;99017.47;6345243;22;49227;-77
2022/01/04 04:27:04;;;;;;;;;3.00;2.00;;;;;21.02;50.39;99014.72;6344932;22;46870;-76
2022/01/04 04:29:30;;;;;;;;;3.00;2.25;;;;;21.02;50.10;99019.19;6373726;22;45153;-76
2022/01/04 04:31:55;;;;;;;;;2.25;2.00;;;;;20.99;50.09;99022.88;6345803;22;46417;-78
2022/01/04 04:34:21;;;;;;;;;3.00;3.00;;;;;21.01;50.20;99022.78;6345149;22;53408;-76
2022/01/04 04:36:47;;;;;;;;;2.50;2.00;;;;;21.01;50.22;99028.94;6373843;22;45439;-77
2022/01/04 04:39:12;;;;;;;;;2.75;2.75;;;;;21.02;50.03;99027.13;6373467;22;54055;-77
2022/01/04 04:41:37;;;;;;;;;3.00;3.00;;;;;21.00;49.87;99015.78;6374090;22;45187;-77
2022/01/04 04:44:03;;;;;;;;;1.00;1.00;;;;;20.98;50.03;99020.31;6373822;22;45364;-77
2022/01/04 04:46:28;;;;;;;;;2.50;1.50;;;;;21.00;50.05;99031.69;6373830;22;46262;-77
2022/01/04 04:48:54;;;;;;;;;2.00;2.00;;;;;20.99;49.73;99037.94;6345303;22;57396;-77
2022/01/04 04:51:19;;;;;;;;;2.00;2.00;;;;;21.03;49.64;99035.03;6319622;22;45270;-76
2022/01/04 04:53:44;;;;;;;;;2.00;2.00;;;;;21.00;50.03;99018.44;6373865;22;45223;-76
2022/01/04 04:56:10;;;;;;;;;2.00;2.00;;;;;20.99;49.61;99025.53;6345062;22;55328;-77
2022/01/04 04:58:36;;;;;;;;;1.50;1.50;;;;;21.01;49.85;99054.59;6373776;22;45229;-77
2022/01/04 05:01:01;;;;;;;;;3.00;3.00;;;;;20.97;49.74;99039.84;6345969;22;45226;-77
2022/01/04 05:03:27;;;;;;;;;2.00;2.00;;;;;20.97;49.59;99040.69;6373543;22;45161;-76
2022/01/04 05:05:52;;;;;;;;;1.00;1.00;;;;;20.97;49.30;99034.53;6373129;22;46988;-76
2022/01/04 05:08:17;;;;;;;;;2.00;2.00;;;;;21.03;49.83;99044.78;6344590;22;59679;-76
2022/01/04 05:10:43;;;;;;;;;1.50;1.00;;;;;21.00;49.96;99043.16;6343807;22;45987;-76
2022/01/04 05:13:08;;;;;;;;;4.00;3.00;;;;;21.02;49.43;99046.56;6345782;22;45497;-76
2022/01/04 05:15:34;;;;;;;;;2.00;2.00;;;;;20.99;49.45;99041.44;6373077;22;55635;-76
2022/01/04 05:17:59;;;;;;;;;1.75;1.75;;;;;21.05;49.77;99057.00;6373618;22;45156;-77
2022/01/04 05:20:25;;;;;;;;;3.00;1.75;;;;;21.05;49.64;99056.16;6345625;22;45214;-76
2022/01/04 05:22:50;;;;;;;;;3.25;2.00;;;;;21.04;49.50;99054.44;6344841;22;45170;-76
2022/01/04 05:25:15;;;;;;;;;1.00;1.00;;;;;21.07;49.67;99060.41;6344931;22;55622;-77
2022/01/04 05:27:41;;;;;;;;;4.00;2.00;;;;;21.07;49.54;99059.56;6345145;22;56878;-77
2022/01/04 05:30:09;;;;;;;;;2.00;2.00;;;;;21.07;49.63;99070.16;6345705;22;45720;-77
2022/01/04 05:32:35;;;;;;;;;2.00;2.00;;;;;21.02;49.62;99061.63;6317963;22;45331;-76
2022/01/04 05:35:00;;;;;;;;;1.00;1.00;;;;;21.03;49.48;99066.00;6345309;22;46319;-77
2022/01/04 05:37:25;;;;;;;;;3.00;1.00;;;;;21.01;50.07;99055.47;6373329;22;45334;-77
2022/01/04 05:39:51;;;;;;;;;1.00;1.00;;;;;21.01;49.48;99057.25;6373680;22;45108;-77
2022/01/04 05:42:16;;;;;;;;;1.75;1.25;;;;;21.01;49.56;99052.81;6345036;22;45489;-76
2022/01/04 05:44:42;;;;;;;;;2.25;1.50;;;;;21.05;49.79;99058.78;6372776;22;56626;-77
2022/01/04 05:47:07;;;;;;;;;2.00;1.50;;;;;21.06;49.52;99057.84;6318242;22;45207;-76
2022/01/04 05:49:32;;;;;;;;;1.75;1.25;;;;;21.04;49.47;99059.75;6292502;22;45400;-77
2022/01/04 05:51:58;;;;;;;;;2.75;1.00;;;;;21.04;49.05;99059.75;6318484;22;45417;-77
2022/01/04 05:54:23;;;;;;;;;2.00;2.00;;;;;21.06;49.39;99068.47;6318115;22;46490;-74
2022/01/04 05:56:49;;;;;;;;;2.50;1.00;;;;;21.04;49.38;99065.06;6318533;22;45577;-78
2022/01/04 05:59:14;;;;;;;;;2.25;1.00;;;;;21.06;49.86;99065.81;6318447;22;45515;-79
2022/01/04 06:01:39;;;;;;;;;0.50;0.50;;;;;21.04;49.49;99060.59;6319132;22;45499;-75
2022/01/04 06:04:12;;;;;;;;;1.00;1.00;;;;;21.09;49.51;99062.97;6372480;22;64376;-76
2022/01/04 06:06:40;;;;;;;;;3.25;3.00;;;;;21.12;51.66;99061.00;6346068;22;45225;-73
2022/01/04 06:09:07;;;;;;;;;7.25;5.50;;;;;21.24;52.35;99067.34;6345357;22;45236;-75
2022/01/04 06:16:51;;;;;;;;;7.25;5.00;;;;;21.61;53.79;99050.00;6326812;22;45386;-71
2022/01/04 06:19:16;;;;;;;;;5.50;4.00;;;;;21.71;53.67;99053.78;6345598;22;45276;-73
2022/01/04 06:21:41;;;;;;;;;6.00;6.00;;;;;21.80;52.93;99057.66;6346288;22;45270;-73
2022/01/04 06:24:07;;;;;;;;;8.25;4.50;;;;;21.86;53.62;99067.91;6319614;22;46928;-71
2022/01/04 06:26:32;;;;;;;;;4.00;3.00;;;;;21.96;52.96;99074.31;6345913;22;45263;-71
2022/01/04 06:28:58;;;;;;;;;3.75;3.25;;;;;22.02;52.68;99081.91;6320040;22;45264;-73
2022/01/04 06:31:25;;;;;;;;;3.00;2.00;;;;;22.09;52.55;99081.53;6345961;22;45403;-73
2022/01/04 06:33:50;;;;;;;;;3.50;3.00;;;;;22.15;52.88;99094.41;6374276;22;45613;-72
2022/01/04 06:36:16;;;;;;;;;2.50;1.75;;;;;22.18;52.53;99084.47;6346064;22;45166;-73
2022/01/04 06:38:41;;;;;;;;;3.75;2.00;;;;;22.24;52.27;99086.72;6373687;22;56254;-74
2022/01/04 06:41:07;;;;;;;;;3.00;2.00;;;;;22.29;52.28;99089.06;6345438;22;45233;-73
2022/01/04 06:43:32;;;;;;;;;2.25;2.25;;;;;22.33;52.61;99095.91;6374198;22;45270;-74
2022/01/04 06:45:58;;;;;;;;;4.00;3.00;;;;;22.33;52.46;99098.56;6346170;22;45161;-72
2022/01/04 06:48:23;;;;;;;;;5.00;3.00;;;;;22.36;52.34;99102.81;6345927;22;45206;-72
2022/01/04 06:50:48;;;;;;;;;4.50;2.50;;;;;22.33;51.77;99095.03;6374034;22;45384;-73
2022/01/04 06:53:14;;;;;;;;;5.00;4.00;;;;;22.38;51.69;99106.22;6374791;22;45194;-73
2022/01/04 06:55:39;;;;;;;;;4.00;2.25;;;;;22.37;51.49;99116.00;6374050;22;45207;-73
2022/01/04 06:58:05;;;;;;;;;3.00;3.00;;;;;22.37;51.55;99123.97;6345700;22;52854;-73
2022/01/04 07:00:31;;;;;;;;;3.50;3.50;;;;;22.38;51.29;99124.84;6374200;22;45253;-72
2022/01/04 07:02:56;;;;;;;;;2.25;2.25;;;;;22.37;51.74;99134.63;6319433;22;48195;-73
2022/01/04 07:05:22;;;;;;;;;4.75;3.50;;;;;22.39;51.11;99140.69;6293104;22;45271;-73
2022/01/04 07:07:47;;;;;;;;;8.50;4.50;;;;;22.41;51.24;99144.06;6319092;22;48365;-72
2022/01/04 07:10:15;;;;;;;;;3.25;3.25;;;;;22.42;49.99;99136.97;6319054;22;45524;-74
2022/01/04 07:12:41;;;;;;;;;6.00;3.50;;;;;22.38;48.84;99130.16;6319876;22;48377;-76
2022/01/04 07:15:07;;;;;;;;;3.00;3.00;;;;;22.28;48.17;99132.56;6318726;22;45445;-76
2022/01/04 07:17:35;;;;;;;;;4.75;3.00;;;;;22.17;47.68;99127.94;6345296;22;45248;-78
2022/01/04 07:20:00;;;;;;;;;3.00;3.00;;;;;22.08;47.35;99125.88;6319502;22;45473;-76
2022/01/04 07:22:26;;;;;;;;;6.00;3.00;;;;;22.07;47.95;99136.56;6319305;22;45484;-78
2022/01/04 07:24:51;;;;;;;;;5.75;4.00;;;;;22.01;47.46;99132.47;6373842;22;45365;-77
2022/01/04 07:27:16;;;;;;;;;7.00;4.00;;;;;21.96;47.24;99143.38;6345735;22;45730;-76
2022/01/04 07:29:42;;;;;;;;;5.00;4.00;;;;;21.89;47.40;99131.47;6318596;22;59250;-76
2022/01/04 07:32:07;;;;;;;;;5.50;3.00;;;;;21.87;47.59;99145.75;6345071;22;45301;-76
2022/01/04 07:34:33;;;;;;;;;4.25;4.00;;;;;21.79;47.66;99148.03;6345821;22;45260;-75
2022/01/04 07:36:58;;;;;;;;;4.25;3.25;;;;;21.75;47.60;99151.84;6373678;22;45328;-80
2022/01/04 07:39:23;;;;;;;;;5.00;5.00;;;;;21.73;47.28;99159.91;6344884;22;58472;-79
2022/01/04 07:41:49;;;;;;;;;5.75;4.25;;;;;21.65;47.63;99157.75;6344693;22;52925;-80
2022/01/04 07:44:14;;;;;;;;;5.00;3.25;;;;;21.59;47.26;99166.06;6345718;22;45443;-78
2022/01/04 07:46:40;;;;;;;;;4.00;4.00;;;;;21.58;47.25;99166.16;6346111;22;45400;-79
2022/01/04 07:49:05;;;;;;;;;6.25;5.00;;;;;21.55;46.82;99174.34;6344687;22;45473;-79
2022/01/04 07:51:31;;;;;;;;;4.25;3.50;;;;;21.52;47.37;99179.81;6345402;22;45352;-79
2022/01/04 07:53:56;;;;;;;;;3.75;3.75;;;;;21.50;47.21;99182.56;6374022;22;45156;-77
2022/01/04 07:56:22;;;;;;;;;5.00;4.25;;;;;21.39;46.86;99182.34;6318682;22;49790;-78
2022/01/04 07:58:47;;;;;;;;;6.00;4.00;;;;;21.36;46.90;99178.06;6292846;22;45258;-77
2022/01/04 08:01:13;;;;;;;;;3.00;3.00;;;;;21.39;46.81;99192.97;6345291;22;49498;-76
2022/01/04 08:03:39;;;;;;;;;5.50;4.25;;;;;21.34;47.41;99197.69;6373787;22;45278;-76
2022/01/04 08:06:04;;;;;;;;;4.25;4.25;;;;;21.39;46.80;99225.69;6373638;22;45215;-76
2022/01/04 08:08:30;;;;;;;;;3.25;3.25;;;;;21.37;47.23;99224.91;6373694;22;45085;-75
2022/01/04 08:10:55;;;;;;;;;4.00;2.75;;;;;21.33;47.02;99212.75;6372770;22;46212;-75
2022/01/04 08:13:20;;;;;;;;;5.00;3.00;;;;;21.33;47.31;99228.69;6373803;22;45139;-75
2022/01/04 08:15:46;;;;;;;;;3.25;3.00;;;;;21.31;47.23;99237.69;6345765;22;45435;-79
2022/01/04 08:18:12;;;;;;;;;3.00;3.00;;;;;21.33;46.67;99254.38;6345429;22;45446;-78
2022/01/04 08:20:37;;;;;;;;;4.00;3.25;;;;;21.29;46.43;99255.50;6344371;22;45366;-78
2022/01/04 08:23:02;;;;;;;;;3.50;2.25;;;;;21.27;46.60;99252.91;6372547;22;45281;-79
2022/01/04 08:25:28;;;;;;;;;4.00;3.00;;;;;21.26;46.77;99253.84;6345667;22;45583;-74
2022/01/04 08:27:54;;;;;;;;;4.00;4.00;;;;;21.25;46.81;99241.50;6345012;22;45379;-75
2022/01/04 08:30:19;;;;;;;;;3.75;3.00;;;;;21.25;46.49;99232.69;6344611;22;46529;-75
2022/01/04 08:32:44;;;;;;;;;3.75;3.00;;;;;21.18;46.43;99226.88;6345049;22;45321;-75
2022/01/04 08:35:10;;;;;;;;;3.25;3.00;;;;;21.17;46.49;99241.97;6344853;22;47436;-75
2022/01/04 08:37:36;;;;;;;;;2.25;2.25;;;;;21.18;46.73;99258.72;6370710;22;45458;-75
2022/01/04 08:40:01;;;;;;;;;2.50;2.00;;;;;21.10;46.41;99260.97;6345023;22;45348;-75
2022/01/04 08:42:27;;;;;;;;;3.00;3.00;;;;;21.10;46.66;99269.78;6318373;22;45187;-75
2022/01/04 08:44:54;;;;;;;;;4.00;3.50;;;;;21.14;47.04;99267.81;6344329;22;45209;-75
2022/01/04 08:47:19;;;;;;;;;2.25;2.25;;;;;21.09;46.80;99264.56;6345790;22;45212;-75
2022/01/04 08:49:45;;;;;;;;;4.25;2.50;;;;;21.10;47.01;99276.88;6318116;22;47067;-75
2022/01/04 08:52:10;;;;;;;;;3.75;3.75;;;;;21.10;46.63;99279.53;6343269;22;57466;-75
2022/01/04 08:54:36;;;;;;;;;3.00;3.00;;;;;21.09;46.74;99291.09;6318748;22;45372;-75
2022/01/04 08:57:01;;;;;;;;;4.00;3.25;;;;;21.05;46.75;99271.84;6317897;22;45312;-75
2022/01/04 08:59:27;;;;;;;;;3.25;3.25;;;;;21.06;46.96;99276.22;6373347;22;46514;-75
2022/01/04 09:01:53;;;;;;;;;2.50;2.50;;;;;21.06;46.83;99276.22;6317640;22;45718;-75
2022/01/04 09:04:18;;;;;;;;;5.50;4.75;;;;;21.04;46.99;99275.47;6371326;22;45404;-77
2022/01/04 09:06:44;;;;;;;;;5.00;5.00;;;;;21.04;46.88;99290.53;6372779;22;45348;-77
2022/01/04 09:09:09;;;;;;;;;7.75;4.50;;;;;21.08;46.70;99300.84;6345210;22;46554;-77
2022/01/04 09:11:35;;;;;;;;;10.00;4.00;;;;;21.08;46.53;99294.69;6339862;22;45420;-76
2022/01/04 09:14:25;;;;;;;;;7.00;5.00;;;;;21.07;46.57;99299.16;6367446;22;45266;-75
2022/01/04 09:19:29;;;;;;;;;7.25;5.25;;;;;21.04;46.79;99311.75;6373174;22;45341;-76
2022/01/04 09:21:55;;;;;;;;;4.50;4.50;;;;;21.03;46.73;99310.03;6372843;22;50096;-74
2022/01/04 09:24:20;;;;;;;;;5.75;3.25;;;;;21.03;46.53;99304.72;6345278;22;45353;-76
2022/01/04 09:26:47;;;;;;;;;3.25;3.00;;;;;21.01;46.61;99304.78;6344594;22;45133;-75
2022/01/04 09:29:13;;;;;;;;;2.50;1.00;;;;;20.95;46.54;99294.53;6345339;22;46312;-76
2022/01/04 09:31:39;;;;;;;;;3.50;3.50;;;;;20.99;46.49;99298.72;6373052;22;45428;-75
2022/01/04 09:34:04;;;;;;;;;5.75;4.00;;;;;20.99;46.75;99296.06;6344885;22;45212;-75
2022/01/04 09:36:32;;;;;;;;;7.50;4.25;;;;;21.00;46.78;99300.44;6372717;22;48595;-76
2022/01/04 09:38:57;;;;;;;;;6.00;5.00;;;;;20.98;46.67;99293.50;6344611;22;45259;-73
2022/01/04 09:41:23;;;;;;;;;3.50;3.50;;;;;21.02;46.62;99292.38;6372787;22;45283;-76
2022/01/04 09:43:49;;;;;;;;;3.25;3.25;;;;;20.96;47.00;99276.84;6372496;22;45372;-76
2022/01/04 09:46:14;;;;;;;;;5.75;4.00;;;;;21.01;47.29;99264.16;6372728;22;45195;-76
2022/01/04 09:48:40;;;;;;;;;5.50;5.50;;;;;21.03;47.10;99276.41;6345029;22;45958;-76
2022/01/04 09:51:07;;;;;;;;;3.00;3.00;;;;;21.07;46.28;99301.78;6344463;22;45417;-76
2022/01/04 09:53:34;;;;;;;;;5.00;3.00;;;;;21.08;46.29;99313.25;6344628;22;45260;-76
2022/01/04 09:55:59;;;;;;;;;5.00;3.00;;;;;21.06;46.61;99320.47;6372525;22;45370;-76
2022/01/04 09:58:25;;;;;;;;;6.00;4.00;;;;;21.03;47.27;99318.84;6344905;22;51917;-75
2022/01/04 10:00:50;;;;;;;;;3.00;3.00;;;;;21.06;46.68;99321.31;6318769;22;45252;-76
2022/01/04 10:03:21;;;;;;;;;3.00;3.00;;;;;21.07;46.30;99325.69;6319280;22;45231;-76
2022/01/04 10:05:47;;;;;;;;;4.50;3.50;;;;;21.06;46.35;99331.06;6317712;22;45121;-75
2022/01/04 10:08:13;;;;;;;;;3.50;3.00;;;;;21.04;46.95;99332.97;6344554;22;48291;-75
2022/01/04 10:10:39;;;;;;;;;2.25;2.25;;;;;21.07;46.75;99335.44;6318612;22;45160;-76
2022/01/04 10:13:11;;;;;;;;;2.50;2.50;;;;;21.08;46.86;99342.44;6318967;22;45276;-77
2022/01/04 10:15:39;;;;;;;;;5.75;3.25;;;;;21.08;46.41;99343.28;6318526;22;45548;-76
2022/01/04 10:18:25;;;;;;;;;4.00;3.00;;;;;21.06;46.10;99347.00;6292020;22;47259;-75
2022/01/04 10:20:58;;;;;;;;;3.00;3.00;;;;;21.04;46.61;99347.06;6343724;22;45339;-75
2022/01/04 10:23:26;;;;;;;;;7.00;5.25;;;;;21.07;47.21;99357.50;6346457;22;45182;-76
2022/01/04 10:25:52;;;;;;;;;2.75;2.75;;;;;21.07;46.75;99351.34;6344394;22;45360;-76
2022/01/04 10:28:40;;;;;;;;;5.00;4.50;;;;;21.09;46.61;99345.00;6372302;22;45410;-76
2022/01/04 10:31:11;;;;;;;;;6.00;4.50;;;;;21.07;45.94;99335.44;6320489;22;45344;-74
2022/01/04 10:33:36;;;;;;;;;4.00;3.00;;;;;21.09;46.41;99338.84;6345037;22;45370;-73
2022/01/04 10:36:11;;;;;;;;;3.50;3.50;;;;;21.11;45.97;99331.66;6291276;22;45510;-76
2022/01/04 10:38:40;;;;;;;;;5.00;4.00;;;;;21.13;46.53;99337.75;6321719;22;45443;-76
2022/01/04 10:41:10;;;;;;;;;5.50;3.25;;;;;21.11;46.54;99329.00;6318014;22;45287;-76
2022/01/04 10:43:40;;;;;;;;;6.00;3.00;;;;;21.13;47.01;99313.88;6344331;22;45343;-76
2022/01/04 10:46:06;;;;;;;;;4.75;3.75;;;;;21.17;46.66;99299.47;6343705;22;45432;-76
2022/01/04 10:48:33;;;;;;;;;3.25;3.00;;;;;21.23;46.61;99304.44;6344455;22;45993;-72
2022/01/04 10:51:06;;;;;;;;;5.25;4.00;;;;;21.24;46.56;99322.06;6317524;22;45167;-73
2022/01/04 10:53:36;;;;;;;;;3.75;3.00;;;;;21.20;46.20;99328.50;6318243;22;45224;-76
2022/01/04 10:56:04;;;;;;;;;5.00;4.00;;;;;21.19;46.22;99337.38;6317891;22;45497;-75
2022/01/04 10:58:35;;;;;;;;;5.25;3.00;;;;;21.21;46.56;99332.88;6318064;22;45334;-76
2022/01/04 11:01:03;;;;;;;;;4.00;3.00;;;;;21.20;46.30;99325.84;6371902;22;45256;-76
2022/01/04 11:03:31;;;;;;;;;5.00;4.00;;;;;21.22;46.60;99325.75;6344637;22;45371;-75
2022/01/04 11:06:02;;;;;;;;;4.50;4.00;;;;;21.21;46.81;99314.28;6344596;22;45213;-74
2022/01/04 11:08:28;;;;;;;;;3.50;3.00;;;;;21.27;46.61;99319.25;6374183;22;46278;-76
2022/01/04 11:10:55;;;;;;;;;5.75;4.00;;;;;21.25;46.00;99314.97;6372688;22;45723;-75
2022/01/04 11:13:20;;;;;;;;;4.00;4.00;;;;;21.24;46.68;99302.63;6346070;22;45299;-76
2022/01/04 11:15:46;;;;;;;;;5.75;4.00;;;;;21.23;46.71;99309.75;6344952;22;45456;-75
2022/01/04 11:18:11;;;;;;;;;5.00;4.00;;;;;21.27;46.59;99316.59;6372865;22;62051;-76
2022/01/04 11:20:39;;;;;;;;;2.25;2.25;;;;;21.27;46.21;99321.91;6345359;22;45199;-77
2022/01/04 11:23:04;;;;;;;;;4.00;4.00;;;;;21.23;46.12;99316.84;6374091;22;45135;-77
2022/01/04 11:25:30;;;;;;;;;4.75;3.50;;;;;21.20;45.61;99320.53;6318326;22;63110;-77
2022/01/04 11:27:55;;;;;;;;;2.75;2.75;;;;;21.16;45.84;99327.81;6344020;22;65005;-74
2022/01/04 11:30:25;;;;;;;;;2.50;2.50;;;;;21.14;45.72;99334.16;6319156;22;45238;-75
2022/01/04 11:32:54;;;;;;;;;2.25;2.25;;;;;21.06;45.45;99329.28;6345854;22;45201;-76
2022/01/04 11:35:21;;;;;;;;;3.75;3.50;;;;;21.04;45.59;99330.31;6319515;22;45261;-76
2022/01/04 11:37:52;;;;;;;;;2.25;2.25;;;;;21.01;45.56;99326.00;6344726;22;47490;-76
2022/01/04 11:40:26;;;;;;;;;2.25;2.00;;;;;21.01;45.81;99328.66;6319069;22;45267;-75
2022/01/04 11:42:52;;;;;;;;;1.75;1.75;;;;;21.05;45.59;99332.03;6373288;22;45164;-75